aviador You're here:

CYKF Decoded Metar

WATERLOO in ON, CANADA
Report Time2017-07-25 20:00:00
UTC Time2017-07-25 20:30:06
Flight Rules vfr VFR
WindVRB at 02 kt
Visibility9999 m
Phenomena:N/A
Clouds:Scattered 049 Hf
Expected CloudBase > 4,400 ft AGL from Temp-Dew spread
CeilingNone
Temp24°C (ISA +11)
Dew Point13°C (50% RH)
QNH1023 hPa
Density Alt2,192 ft
Elevation1,040 ft
Report Wrong Elevation
Raw Report
CYKF 252000Z AUTO VRB02KT 9SM SCT049 24/13 A3021 RMK SLP230
DENSITY ALT 1900FT=

Extra information for CYKF:More info

Metar Taf Metar & Taf Last 4 Metars F.Rules Stats Wind Profile Meteogram Temp Stats Airport Information Weather charts Add Link Nearby VenuesMetar ALERT Operation Metar Decoded Social comments